Moby Aki — IBVV — position and weather

sailwx.info

Track history (hours):
 
Tides and Currents Weather Stations Pressure Air Temp Water Temp Dewpoint Dewpoint Depression Visibility Wind Speed Wind Dir Waves Ship Positions

Moby Aki

Last reported at 2015-Mar-31 06:27 UTC. Time now 2015-Mar-31 06:44 UTC.
Position N 40°55' E 009°31'.

Length 175 m; draft 6.9 m.

Type: Passenger vessel. MMSI: 247132400.

Date/timePositionNaut miles runAvg speedWind from/ knotsBaromVisibWave heightAir tempDewpointWater temp
2015-Mar-31 06:27N 40°55' E 009°31'0 0.0
2015-Mar-31 05:27N 40°55' E 009°31'10715.5
2015-Mar-30 22:31N 42°41' E 009°55'1818.3
2015-Mar-30 21:33N 42°59' E 009°59'1818.5
2015-Mar-30 20:34N 43°16' E 010°07'1716.7
2015-Mar-30 19:33N 43°32' E 010°15'3 2.5
2015-Mar-30 18:33N 43°33' E 010°18'0 0.0
2015-Mar-30 17:33N 43°33' E 010°18'0 0.0
2015-Mar-30 16:33N 43°33' E 010°18'0 0.0
2015-Mar-30 15:32N 43°33' E 010°18'0 0.0
2015-Mar-30 14:32N 43°33' E 010°18'0 0.0
2015-Mar-30 13:32N 43°33' E 010°18'0 0.0
2015-Mar-30 12:32N 43°33' E 010°18'0 0.0
2015-Mar-30 11:32N 43°33' E 010°18'0 0.0
2015-Mar-30 10:32N 43°33' E 010°18'0 0.0
2015-Mar-30 09:32N 43°33' E 010°18'0 0.0
2015-Mar-30 08:31N 43°33' E 010°18'0 0.0
2015-Mar-30 07:31N 43°33' E 010°18'0 0.0
2015-Mar-30 06:31N 43°33' E 010°18'0 0.0
2015-Mar-30 05:32N 43°33' E 010°18'2 2.2
2015-Mar-30 04:33N 43°32' E 010°16'1717.0
2015-Mar-30 03:33N 43°16' E 010°06'1817.9
2015-Mar-30 02:33N 42°59' E 009°57'1917.8
2015-Mar-30 01:30N 42°42' E 009°49'4317.8
2015-Mar-29 23:04N 41°58' E 009°47'917.5
2015-Mar-29 22:34N 41°50' E 009°46'1817.7
2015-Mar-29 21:33N 41°32' E 009°44'61 2.8
2015-Mar-28 23:33N 42°33' E 009°55'2019.7
2015-Mar-28 22:33N 42°52' E 009°59'2019.6
2015-Mar-28 21:33N 43°11' E 010°06'1919.4
2015-Mar-28 20:33N 43°30' E 010°13'5 4.9
2015-Mar-28 19:33N 43°33' E 010°18'0 0.0
2015-Mar-28 18:33N 43°33' E 010°18'0 0.0
2015-Mar-28 17:33N 43°33' E 010°18'0 0.0
2015-Mar-28 16:33N 43°33' E 010°18'0 0.0
2015-Mar-28 15:33N 43°33' E 010°18'0 0.0
2015-Mar-28 14:33N 43°33' E 010°18'0 0.0
2015-Mar-28 13:33N 43°33' E 010°18'0 0.0
2015-Mar-28 12:31N 43°33' E 010°18'0 0.0
2015-Mar-28 11:31N 43°33' E 010°18'0 0.0
2015-Mar-28 10:33N 43°33' E 010°18'0 0.0
2015-Mar-28 09:33N 43°33' E 010°18'0 0.0
2015-Mar-28 08:33N 43°33' E 010°18'0 0.0
2015-Mar-28 07:30N 43°33' E 010°18'0 0.0
2015-Mar-28 06:33N 43°33' E 010°18'3 2.5
2015-Mar-28 05:34N 43°31' E 010°16'1817.5
2015-Mar-28 04:33N 43°15' E 010°07'2218.0
2015-Mar-28 03:21N 42°54' E 009°59'8 0.3
2015-Mar-26 22:25N 43°01' E 010°02'1518.1
2015-Mar-26 21:33N 43°16' E 010°08'1616.4
2015-Mar-26 20:33N 43°32' E 010°15'2 2.4
2015-Mar-26 19:34N 43°33' E 010°18'0 0.0
2015-Mar-26 18:31N 43°33' E 010°18'0 0.0
2015-Mar-26 17:34N 43°33' E 010°18'0 0.0
2015-Mar-26 16:33N 43°33' E 010°18'0 0.0
2015-Mar-26 15:33N 43°33' E 010°18'0 0.0
2015-Mar-26 14:33N 43°33' E 010°18'0 0.0
2015-Mar-26 13:33N 43°33' E 010°18'0 0.0
2015-Mar-26 12:32N 43°33' E 010°18'0 0.0
2015-Mar-26 11:32N 43°33' E 010°18'0 0.0
2015-Mar-26 10:32N 43°33' E 010°18'0 0.0
2015-Mar-26 09:32N 43°33' E 010°18'0 0.0
2015-Mar-26 08:29N 43°33' E 010°18'0 0.0
2015-Mar-26 07:31N 43°33' E 010°18'0 0.0
2015-Mar-26 06:31N 43°33' E 010°18'3 2.9
2015-Mar-26 05:33N 43°31' E 010°15'1818.0
2015-Mar-26 04:34N 43°15' E 010°04'1818.3
2015-Mar-26 03:33N 42°58' E 009°56'6 0.2
2015-Mar-24 22:33N 42°54' E 010°03'1717.5
2015-Mar-24 21:34N 43°11' E 010°07'1817.6
2015-Mar-24 20:33N 43°28' E 010°11'7 6.7
2015-Mar-24 19:32N 43°33' E 010°18'0 0.0
2015-Mar-24 18:32N 43°33' E 010°18'0 0.0
2015-Mar-24 17:32N 43°33' E 010°18'0 0.0
2015-Mar-24 16:32N 43°33' E 010°18'0 0.0
2015-Mar-24 15:32N 43°33' E 010°18'0 0.0
2015-Mar-24 14:32N 43°33' E 010°18'0 0.0
2015-Mar-24 13:32N 43°33' E 010°18'0 0.0
2015-Mar-24 12:25N 43°33' E 010°18'0 0.0
2015-Mar-24 11:31N 43°33' E 010°18'0 0.0
2015-Mar-24 10:31N 43°33' E 010°18'0 0.0
2015-Mar-24 09:31N 43°33' E 010°18'0 0.0
2015-Mar-24 08:31N 43°33' E 010°18'0 0.0
2015-Mar-24 07:28N 43°33' E 010°18'0 0.0
2015-Mar-24 06:33N 43°33' E 010°18'3 2.8
2015-Mar-24 05:33N 43°31' E 010°16'1817.7
2015-Mar-24 04:34N 43°14' E 010°09'15 0.5
2015-Mar-22 22:20N 42°60' E 010°05'1417.7
2015-Mar-22 21:34N 43°13' E 010°07'1817.7
2015-Mar-22 20:33N 43°30' E 010°13'5 4.6
2015-Mar-22 19:33N 43°33' E 010°18'0 0.0
2015-Mar-22 18:33N 43°33' E 010°18'0 0.0
2015-Mar-22 17:33N 43°33' E 010°18'0 0.0
2015-Mar-22 16:33N 43°33' E 010°18'0 0.0
2015-Mar-22 15:29N 43°33' E 010°18'0 0.0
2015-Mar-22 14:32N 43°33' E 010°18'0 0.0
2015-Mar-22 13:32N 43°33' E 010°18'0 0.0
2015-Mar-22 12:32N 43°33' E 010°18'0 0.0
2015-Mar-22 11:32N 43°33' E 010°18'0 0.0
2015-Mar-22 10:31N 43°33' E 010°18'0 0.0
2015-Mar-22 09:31N 43°33' E 010°18'0 0.0
2015-Mar-22 08:31N 43°33' E 010°18'0 0.0
2015-Mar-22 07:31N 43°33' E 010°18'0 0.0
2015-Mar-22 06:28N 43°33' E 010°18'3 3.2
2015-Mar-22 05:33N 43°31' E 010°15'1717.5
2015-Mar-22 04:33N 43°14' E 010°08'14117.0
2015-Mar-21 20:16N 40°55' E 009°33'1 1.4
2015-Mar-21 19:33N 40°55' E 009°31'0 0.0
2015-Mar-21 18:33N 40°55' E 009°31'0 0.0
2015-Mar-21 17:33N 40°55' E 009°31'0 0.0
2015-Mar-21 16:33N 40°55' E 009°31'0 0.0
2015-Mar-21 15:24N 40°55' E 009°31'0 0.0
2015-Mar-21 14:33N 40°55' E 009°31'0 0.0
2015-Mar-21 13:30N 40°55' E 009°31'0 0.0
2015-Mar-21 12:32N 40°55' E 009°31'0 0.0
2015-Mar-21 11:23N 40°55' E 009°31'0 0.0
2015-Mar-21 10:23N 40°55' E 009°31'0 0.0
2015-Mar-21 09:32N 40°55' E 009°31'0 0.0
2015-Mar-21 08:31N 40°55' E 009°31'0 0.0
2015-Mar-21 07:31N 40°55' E 009°31'0 0.0
2015-Mar-21 06:31N 40°55' E 009°31'  
Track history (hours):
 
Tides and Currents Weather Stations Pressure Air Temp Water Temp Dewpoint Dewpoint Depression Visibility Wind Speed Wind Dir Waves Ship Positions

Moby Aki

Last reported at 2015-Mar-31 06:27 UTC. Time now 2015-Mar-31 06:44 UTC.
Position N 40°55' E 009°31'.

Length 175 m; draft 6.9 m.

Type: Passenger vessel. MMSI: 247132400.

Date/timePositionNaut miles runAvg speedWind from/ knotsBaromVisibWave heightAir tempDewpointWater temp
2015-Mar-31 06:27N 40°55' E 009°31'0 0.0
2015-Mar-31 05:27N 40°55' E 009°31'10715.5
2015-Mar-30 22:31N 42°41' E 009°55'1818.3
2015-Mar-30 21:33N 42°59' E 009°59'1818.5
2015-Mar-30 20:34N 43°16' E 010°07'1716.7
2015-Mar-30 19:33N 43°32' E 010°15'3 2.5
2015-Mar-30 18:33N 43°33' E 010°18'0 0.0
2015-Mar-30 17:33N 43°33' E 010°18'0 0.0
2015-Mar-30 16:33N 43°33' E 010°18'0 0.0
2015-Mar-30 15:32N 43°33' E 010°18'0 0.0
2015-Mar-30 14:32N 43°33' E 010°18'0 0.0
2015-Mar-30 13:32N 43°33' E 010°18'0 0.0
2015-Mar-30 12:32N 43°33' E 010°18'0 0.0
2015-Mar-30 11:32N 43°33' E 010°18'0 0.0
2015-Mar-30 10:32N 43°33' E 010°18'0 0.0
2015-Mar-30 09:32N 43°33' E 010°18'0 0.0
2015-Mar-30 08:31N 43°33' E 010°18'0 0.0
2015-Mar-30 07:31N 43°33' E 010°18'0 0.0
2015-Mar-30 06:31N 43°33' E 010°18'0 0.0
2015-Mar-30 05:32N 43°33' E 010°18'2 2.2
2015-Mar-30 04:33N 43°32' E 010°16'1717.0
2015-Mar-30 03:33N 43°16' E 010°06'1817.9
2015-Mar-30 02:33N 42°59' E 009°57'1917.8
2015-Mar-30 01:30N 42°42' E 009°49'4317.8
2015-Mar-29 23:04N 41°58' E 009°47'917.5
2015-Mar-29 22:34N 41°50' E 009°46'1817.7
2015-Mar-29 21:33N 41°32' E 009°44'61 2.8
2015-Mar-28 23:33N 42°33' E 009°55'2019.7
2015-Mar-28 22:33N 42°52' E 009°59'2019.6
2015-Mar-28 21:33N 43°11' E 010°06'1919.4
2015-Mar-28 20:33N 43°30' E 010°13'5 4.9
2015-Mar-28 19:33N 43°33' E 010°18'0 0.0
2015-Mar-28 18:33N 43°33' E 010°18'0 0.0
2015-Mar-28 17:33N 43°33' E 010°18'0 0.0
2015-Mar-28 16:33N 43°33' E 010°18'0 0.0
2015-Mar-28 15:33N 43°33' E 010°18'0 0.0
2015-Mar-28 14:33N 43°33' E 010°18'0 0.0
2015-Mar-28 13:33N 43°33' E 010°18'0 0.0
2015-Mar-28 12:31N 43°33' E 010°18'0 0.0
2015-Mar-28 11:31N 43°33' E 010°18'0 0.0
2015-Mar-28 10:33N 43°33' E 010°18'0 0.0
2015-Mar-28 09:33N 43°33' E 010°18'0 0.0
2015-Mar-28 08:33N 43°33' E 010°18'0 0.0
2015-Mar-28 07:30N 43°33' E 010°18'0 0.0
2015-Mar-28 06:33N 43°33' E 010°18'3 2.5
2015-Mar-28 05:34N 43°31' E 010°16'1817.5
2015-Mar-28 04:33N 43°15' E 010°07'2218.0
2015-Mar-28 03:21N 42°54' E 009°59'8 0.3
2015-Mar-26 22:25N 43°01' E 010°02'1518.1
2015-Mar-26 21:33N 43°16' E 010°08'1616.4
2015-Mar-26 20:33N 43°32' E 010°15'2 2.4
2015-Mar-26 19:34N 43°33' E 010°18'0 0.0
2015-Mar-26 18:31N 43°33' E 010°18'0 0.0
2015-Mar-26 17:34N 43°33' E 010°18'0 0.0
2015-Mar-26 16:33N 43°33' E 010°18'0 0.0
2015-Mar-26 15:33N 43°33' E 010°18'0 0.0
2015-Mar-26 14:33N 43°33' E 010°18'0 0.0
2015-Mar-26 13:33N 43°33' E 010°18'0 0.0
2015-Mar-26 12:32N 43°33' E 010°18'0 0.0
2015-Mar-26 11:32N 43°33' E 010°18'0 0.0
2015-Mar-26 10:32N 43°33' E 010°18'0 0.0
2015-Mar-26 09:32N 43°33' E 010°18'0 0.0
2015-Mar-26 08:29N 43°33' E 010°18'0 0.0
2015-Mar-26 07:31N 43°33' E 010°18'0 0.0
2015-Mar-26 06:31N 43°33' E 010°18'3 2.9
2015-Mar-26 05:33N 43°31' E 010°15'1818.0
2015-Mar-26 04:34N 43°15' E 010°04'1818.3
2015-Mar-26 03:33N 42°58' E 009°56'6 0.2
2015-Mar-24 22:33N 42°54' E 010°03'1717.5
2015-Mar-24 21:34N 43°11' E 010°07'1817.6
2015-Mar-24 20:33N 43°28' E 010°11'7 6.7
2015-Mar-24 19:32N 43°33' E 010°18'0 0.0
2015-Mar-24 18:32N 43°33' E 010°18'0 0.0
2015-Mar-24 17:32N 43°33' E 010°18'0 0.0
2015-Mar-24 16:32N 43°33' E 010°18'0 0.0
2015-Mar-24 15:32N 43°33' E 010°18'0 0.0
2015-Mar-24 14:32N 43°33' E 010°18'0 0.0
2015-Mar-24 13:32N 43°33' E 010°18'0 0.0
2015-Mar-24 12:25N 43°33' E 010°18'0 0.0
2015-Mar-24 11:31N 43°33' E 010°18'0 0.0
2015-Mar-24 10:31N 43°33' E 010°18'0 0.0
2015-Mar-24 09:31N 43°33' E 010°18'0 0.0
2015-Mar-24 08:31N 43°33' E 010°18'0 0.0
2015-Mar-24 07:28N 43°33' E 010°18'0 0.0
2015-Mar-24 06:33N 43°33' E 010°18'3 2.8
2015-Mar-24 05:33N 43°31' E 010°16'1817.7
2015-Mar-24 04:34N 43°14' E 010°09'15 0.5
2015-Mar-22 22:20N 42°60' E 010°05'1417.7
2015-Mar-22 21:34N 43°13' E 010°07'1817.7
2015-Mar-22 20:33N 43°30' E 010°13'5 4.6
2015-Mar-22 19:33N 43°33' E 010°18'0 0.0
2015-Mar-22 18:33N 43°33' E 010°18'0 0.0
2015-Mar-22 17:33N 43°33' E 010°18'0 0.0
2015-Mar-22 16:33N 43°33' E 010°18'0 0.0
2015-Mar-22 15:29N 43°33' E 010°18'0 0.0
2015-Mar-22 14:32N 43°33' E 010°18'0 0.0
2015-Mar-22 13:32N 43°33' E 010°18'0 0.0
2015-Mar-22 12:32N 43°33' E 010°18'0 0.0
2015-Mar-22 11:32N 43°33' E 010°18'0 0.0
2015-Mar-22 10:31N 43°33' E 010°18'0 0.0
2015-Mar-22 09:31N 43°33' E 010°18'0 0.0
2015-Mar-22 08:31N 43°33' E 010°18'0 0.0
2015-Mar-22 07:31N 43°33' E 010°18'0 0.0
2015-Mar-22 06:28N 43°33' E 010°18'3 3.2
2015-Mar-22 05:33N 43°31' E 010°15'1717.5
2015-Mar-22 04:33N 43°14' E 010°08'14117.0
2015-Mar-21 20:16N 40°55' E 009°33'1 1.4
2015-Mar-21 19:33N 40°55' E 009°31'0 0.0
2015-Mar-21 18:33N 40°55' E 009°31'0 0.0
2015-Mar-21 17:33N 40°55' E 009°31'0 0.0
2015-Mar-21 16:33N 40°55' E 009°31'0 0.0
2015-Mar-21 15:24N 40°55' E 009°31'0 0.0
2015-Mar-21 14:33N 40°55' E 009°31'0 0.0
2015-Mar-21 13:30N 40°55' E 009°31'0 0.0
2015-Mar-21 12:32N 40°55' E 009°31'0 0.0
2015-Mar-21 11:23N 40°55' E 009°31'0 0.0
2015-Mar-21 10:23N 40°55' E 009°31'0 0.0
2015-Mar-21 09:32N 40°55' E 009°31'0 0.0
2015-Mar-21 08:31N 40°55' E 009°31'0 0.0
2015-Mar-21 07:31N 40°55' E 009°31'0 0.0
2015-Mar-21 06:31N 40°55' E 009°31'  

Dump ship's entire track history